createdAt,value
2017-12-28T00:01:00.157Z,10.70
2017-12-28T00:02:03.436Z,15.20
2017-12-28T00:03:06.765Z,8.93
2017-12-28T00:04:09.288Z,8.63
2017-12-28T00:05:12.574Z,9.55
2017-12-28T00:06:15.856Z,10.10
2017-12-28T00:07:19.148Z,11.12
2017-12-28T00:08:22.455Z,12.32
2017-12-28T00:09:24.971Z,10.88
2017-12-28T00:10:27.532Z,11.27
2017-12-28T00:11:30.050Z,13.10
2017-12-28T00:12:32.564Z,14.65
2017-12-28T00:13:35.081Z,16.62
2017-12-28T00:14:37.638Z,17.87
2017-12-28T00:15:40.191Z,35.72
2017-12-28T00:16:43.488Z,29.27
2017-12-28T00:17:46.039Z,17.70
2017-12-28T00:18:49.322Z,15.32
2017-12-28T00:19:52.608Z,13.25
2017-12-28T00:20:55.933Z,10.90
2017-12-28T00:21:58.450Z,9.95
2017-12-28T00:23:00.968Z,10.18
2017-12-28T00:24:03.501Z,11.12
2017-12-28T00:25:06.786Z,10.27
2017-12-28T00:26:09.344Z,11.27
2017-12-28T00:27:12.628Z,11.60
2017-12-28T00:28:15.916Z,9.60
2017-12-28T00:29:19.249Z,12.88
2017-12-28T00:30:21.758Z,9.88
2017-12-28T00:31:25.037Z,8.57
2017-12-28T00:32:28.313Z,8.63
2017-12-28T00:33:30.833Z,9.10
2017-12-28T00:34:33.393Z,9.98
2017-12-28T00:35:35.907Z,10.73
2017-12-28T00:36:38.424Z,9.80
2017-12-28T00:37:40.946Z,10.00
2017-12-28T00:38:44.234Z,9.95
2017-12-28T00:39:47.540Z,9.18
2017-12-28T00:40:50.065Z,12.00
2017-12-28T00:41:52.577Z,12.77
2017-12-28T00:42:55.083Z,8.85
2017-12-28T00:43:57.713Z,13.43
2017-12-28T00:45:00.293Z,8.43
2017-12-28T00:46:02.825Z,8.88
2017-12-28T00:47:06.112Z,10.63
2017-12-28T00:48:09.406Z,12.50
2017-12-28T00:49:11.917Z,11.93
2017-12-28T00:50:14.450Z,8.52
2017-12-28T00:51:16.979Z,10.07
2017-12-28T00:52:20.258Z,8.50
2017-12-28T00:53:23.568Z,8.93
2017-12-28T00:54:26.099Z,10.77
2017-12-28T00:55:28.665Z,10.63
2017-12-28T00:56:31.189Z,10.52
2017-12-28T00:57:33.849Z,8.82
2017-12-28T00:58:36.649Z,10.25
2017-12-28T00:59:39.173Z,10.95
2017-12-28T01:00:41.717Z,8.80
2017-12-28T01:01:45.053Z,12.65
2017-12-28T01:02:47.572Z,7.72
2017-12-28T01:03:50.916Z,12.52
2017-12-28T01:04:53.425Z,9.43
2017-12-28T01:05:56.714Z,10.18
2017-12-28T01:07:00.030Z,10.25
2017-12-28T01:08:02.584Z,9.73
2017-12-28T01:09:05.105Z,9.93
2017-12-28T01:10:07.618Z,10.15
2017-12-28T01:11:10.150Z,10.23
2017-12-28T01:12:13.437Z,11.15
2017-12-28T01:13:15.984Z,9.80
2017-12-28T01:14:18.500Z,9.77
2017-12-28T01:15:21.051Z,9.60
2017-12-28T01:16:23.570Z,10.30
2017-12-28T01:17:26.091Z,9.00
2017-12-28T01:18:28.655Z,10.27
2017-12-28T01:19:31.208Z,12.27
2017-12-28T01:20:34.484Z,9.52
2017-12-28T01:21:37.759Z,8.82
2017-12-28T01:22:41.045Z,13.40
2017-12-28T01:23:44.350Z,11.27
2017-12-28T01:24:46.900Z,10.70
2017-12-28T01:25:50.181Z,11.90
2017-12-28T01:26:53.462Z,9.45
2017-12-28T01:27:56.760Z,11.35
2017-12-28T01:29:00.083Z,13.38
2017-12-28T01:30:02.601Z,11.63
2017-12-28T01:31:05.914Z,11.52
2017-12-28T01:32:08.481Z,10.80
2017-12-28T01:33:11.009Z,11.57
2017-12-28T01:34:13.533Z,10.48
2017-12-28T01:35:16.045Z,11.30
2017-12-28T01:36:18.569Z,12.43
2017-12-28T01:37:21.112Z,10.32
2017-12-28T01:38:23.635Z,9.93
2017-12-28T01:39:26.961Z,13.62
2017-12-28T01:40:29.487Z,11.27
2017-12-28T01:41:32.042Z,10.02
2017-12-28T01:42:34.578Z,11.90
2017-12-28T01:43:37.167Z,13.77
2017-12-28T01:44:39.712Z,12.37
2017-12-28T01:45:42.240Z,9.50
2017-12-28T01:46:45.537Z,14.55
2017-12-28T01:47:59.697Z,15.70
2017-12-28T01:49:02.223Z,14.30
2017-12-28T01:50:05.545Z,16.23
2017-12-28T01:51:08.079Z,14.15
2017-12-28T01:52:10.608Z,14.32
2017-12-28T01:53:13.126Z,12.37
2017-12-28T01:54:15.661Z,17.52
2017-12-28T01:55:18.985Z,15.75
2017-12-28T01:56:21.554Z,13.05
2017-12-28T01:57:24.080Z,12.55
2017-12-28T01:58:27.392Z,10.32
2017-12-28T01:59:29.913Z,13.93
2017-12-28T02:00:32.429Z,15.57
2017-12-28T02:01:34.981Z,11.48
2017-12-28T02:02:37.564Z,13.25
2017-12-28T02:03:40.072Z,12.93
2017-12-28T02:04:42.580Z,12.35
2017-12-28T02:05:45.157Z,10.93
2017-12-28T02:06:47.709Z,12.70
2017-12-28T02:07:50.995Z,17.73
2017-12-28T02:08:53.525Z,13.88
2017-12-28T02:09:56.193Z,13.40
2017-12-28T02:10:58.708Z,15.57
2017-12-28T02:12:01.223Z,13.35
2017-12-28T02:13:03.761Z,16.85
2017-12-28T02:14:06.281Z,13.68
2017-12-28T02:15:09.613Z,16.90
2017-12-28T02:16:12.147Z,11.30
2017-12-28T02:17:14.679Z,11.93
2017-12-28T02:18:17.194Z,13.13
2017-12-28T02:19:19.714Z,10.63
2017-12-28T02:20:22.265Z,11.57
2017-12-28T02:21:24.826Z,12.40
2017-12-28T02:22:27.345Z,11.60
2017-12-28T02:23:29.869Z,13.18
2017-12-28T02:24:32.380Z,12.48
2017-12-28T02:25:34.897Z,10.90
2017-12-28T02:26:37.468Z,10.80
2017-12-28T02:27:39.989Z,14.45
2017-12-28T02:28:42.524Z,13.68
2017-12-28T02:29:45.810Z,11.68
2017-12-28T02:30:49.096Z,15.05
2017-12-28T02:31:52.424Z,12.10
2017-12-28T02:32:54.945Z,21.02
2017-12-28T02:33:58.265Z,10.88
2017-12-28T02:35:00.852Z,12.52
2017-12-28T02:36:03.384Z,14.13
2017-12-28T02:37:05.903Z,7.93
2017-12-28T02:38:08.414Z,9.10
2017-12-28T02:39:10.965Z,11.00
2017-12-28T02:40:13.486Z,10.57
2017-12-28T02:41:15.992Z,11.50
2017-12-28T02:42:19.408Z,12.50
2017-12-28T02:43:21.929Z,10.40
2017-12-28T02:44:24.489Z,9.77
2017-12-28T02:45:27.007Z,8.30
2017-12-28T02:46:29.525Z,11.12
2017-12-28T02:47:32.809Z,8.98
2017-12-28T02:48:36.090Z,8.82
2017-12-28T02:49:38.640Z,11.55
2017-12-28T02:50:41.200Z,11.25
2017-12-28T02:51:43.713Z,10.18
2017-12-28T02:52:46.225Z,11.52
2017-12-28T02:53:48.742Z,8.63
2017-12-28T02:54:52.029Z,8.63
2017-12-28T02:55:54.587Z,10.25
2017-12-28T02:56:57.865Z,10.25
2017-12-28T02:58:01.163Z,12.75
2017-12-28T02:59:03.685Z,13.25
2017-12-28T03:00:06.197Z,11.68
2017-12-28T03:01:08.770Z,13.07
2017-12-28T03:02:11.290Z,17.45
2017-12-28T03:03:13.812Z,17.85
2017-12-28T03:04:16.336Z,21.33
2017-12-28T03:05:19.629Z,19.60
2017-12-28T03:06:22.952Z,22.42
2017-12-28T03:07:25.476Z,24.45
2017-12-28T03:08:28.757Z,24.58
2017-12-28T03:09:32.055Z,21.00
2017-12-28T03:10:35.342Z,20.80
2017-12-28T03:11:38.075Z,23.15
2017-12-28T03:12:40.608Z,27.83
2017-12-28T03:13:43.160Z,18.92
2017-12-28T03:14:45.680Z,23.62
2017-12-28T03:15:48.197Z,23.40
2017-12-28T03:16:50.745Z,24.92
2017-12-28T03:17:53.269Z,23.55
2017-12-28T03:18:56.607Z,26.70
2017-12-28T03:19:59.177Z,30.42
2017-12-28T03:21:01.754Z,30.88
2017-12-28T03:22:04.304Z,30.60
2017-12-28T03:23:06.841Z,28.45
2017-12-28T03:24:10.120Z,29.65
2017-12-28T03:25:13.408Z,28.95
2017-12-28T03:26:16.725Z,25.62
2017-12-28T03:27:19.243Z,30.75
2017-12-28T03:28:21.772Z,28.80
2017-12-28T03:29:24.331Z,29.80
2017-12-28T03:30:26.849Z,30.27
2017-12-28T03:31:29.379Z,29.48
2017-12-28T03:32:31.901Z,27.67
2017-12-28T03:33:35.188Z,20.02
2017-12-28T03:34:37.753Z,21.65
2017-12-28T03:35:41.040Z,20.08
2017-12-28T03:36:43.611Z,20.48
2017-12-28T03:37:46.133Z,16.83
2017-12-28T03:38:48.669Z,18.05
2017-12-28T03:39:51.191Z,15.32
2017-12-28T03:40:54.482Z,13.93
2017-12-28T03:41:57.812Z,12.37
2017-12-28T03:43:00.331Z,11.55
2017-12-28T03:44:03.631Z,10.70
2017-12-28T03:45:06.147Z,10.52
2017-12-28T03:46:08.658Z,11.45
2017-12-28T03:47:11.211Z,10.75
2017-12-28T03:48:14.489Z,8.48
2017-12-28T03:49:17.769Z,9.07
2017-12-28T03:50:21.062Z,8.15
2017-12-28T03:51:24.332Z,8.18
2017-12-28T03:52:27.647Z,5.30
2017-12-28T03:53:30.160Z,4.75
2017-12-28T03:54:32.685Z,4.60
2017-12-28T03:55:35.249Z,3.65
2017-12-28T03:56:37.813Z,3.78
2017-12-28T03:57:40.377Z,3.20
2017-12-28T03:58:42.902Z,2.90
2017-12-28T03:59:45.405Z,3.10
2017-12-28T04:00:47.920Z,3.55
2017-12-28T04:01:50.433Z,3.35
2017-12-28T04:02:52.987Z,4.05
2017-12-28T04:03:56.274Z,3.15
2017-12-28T04:04:59.557Z,3.50
2017-12-28T04:06:02.837Z,3.83
2017-12-28T04:07:06.126Z,2.70
2017-12-28T04:08:09.436Z,3.47
2017-12-28T04:09:11.952Z,2.62
2017-12-28T04:10:14.469Z,2.80
2017-12-28T04:11:17.026Z,2.85
2017-12-28T04:12:19.537Z,2.83
2017-12-28T04:13:22.039Z,2.35
2017-12-28T04:14:24.580Z,2.08
2017-12-28T04:15:27.103Z,2.45
2017-12-28T04:16:29.661Z,4.22
2017-12-28T04:17:32.176Z,2.10
2017-12-28T04:18:34.716Z,2.58
2017-12-28T04:19:37.230Z,2.50
2017-12-28T04:20:40.509Z,2.20
2017-12-28T04:21:43.827Z,2.83
2017-12-28T04:22:46.333Z,6.47
2017-12-28T04:23:48.849Z,2.67
2017-12-28T04:24:51.417Z,1.85
2017-12-28T04:25:53.964Z,2.12
2017-12-28T04:26:57.272Z,4.18
2017-12-28T04:27:59.788Z,2.25
2017-12-28T04:29:03.075Z,2.30
2017-12-28T04:30:05.584Z,2.85
2017-12-28T04:31:08.097Z,1.90
2017-12-28T04:32:10.633Z,2.37
2017-12-28T04:33:13.161Z,1.75
2017-12-28T04:34:16.444Z,2.10
2017-12-28T04:35:19.738Z,2.70
2017-12-28T04:36:22.252Z,1.87
2017-12-28T04:37:24.807Z,1.98
2017-12-28T04:38:27.323Z,1.80
2017-12-28T04:39:30.604Z,2.10
2017-12-28T04:40:33.875Z,2.30
2017-12-28T04:41:36.385Z,2.00
2017-12-28T04:42:38.935Z,2.55
2017-12-28T04:43:41.508Z,2.10
2017-12-28T04:44:44.019Z,2.80
2017-12-28T04:45:46.536Z,1.60
2017-12-28T04:46:49.054Z,1.75
2017-12-28T04:47:51.565Z,4.93
2017-12-28T04:48:54.108Z,4.20
2017-12-28T04:49:57.547Z,3.58
2017-12-28T04:51:00.062Z,4.35
2017-12-28T04:52:03.375Z,2.08
2017-12-28T04:53:05.888Z,2.28
2017-12-28T04:54:08.404Z,2.22
2017-12-28T04:55:10.961Z,3.20
2017-12-28T04:56:13.472Z,1.95
2017-12-28T04:57:16.002Z,3.37
2017-12-28T04:58:18.517Z,2.00
2017-12-28T04:59:21.032Z,6.10
2017-12-28T05:00:23.581Z,2.25
2017-12-28T05:01:26.857Z,3.22
2017-12-28T05:02:30.133Z,2.45
2017-12-28T05:03:32.648Z,3.70
2017-12-28T05:04:35.172Z,2.22
2017-12-28T05:05:38.477Z,1.65
2017-12-28T05:06:41.022Z,3.67
2017-12-28T05:07:44.305Z,2.72
2017-12-28T05:08:47.596Z,3.17
2017-12-28T05:09:50.864Z,6.10
2017-12-28T05:10:54.193Z,2.60
2017-12-28T05:11:56.712Z,3.08
2017-12-28T05:12:59.225Z,3.03
2017-12-28T05:14:01.736Z,5.05
2017-12-28T05:15:04.256Z,5.97
2017-12-28T05:16:06.792Z,3.25
2017-12-28T05:17:10.066Z,1.40
2017-12-28T05:18:13.382Z,1.92
2017-12-28T05:19:15.891Z,1.55
2017-12-28T05:20:18.406Z,1.62
2017-12-28T05:21:20.920Z,2.28
2017-12-28T05:22:23.462Z,1.52
2017-12-28T05:23:25.974Z,1.92
2017-12-28T05:24:29.310Z,4.95
2017-12-28T05:25:31.861Z,4.93
2017-12-28T05:26:34.369Z,5.40
2017-12-28T05:27:36.872Z,2.35
2017-12-28T05:28:40.146Z,7.53
2017-12-28T05:29:43.550Z,4.85
2017-12-28T05:30:46.057Z,4.62
2017-12-28T05:31:49.332Z,2.45
2017-12-28T05:32:51.847Z,1.50
2017-12-28T05:33:55.156Z,1.50
2017-12-28T05:34:57.695Z,1.80
2017-12-28T05:36:01.024Z,2.30
2017-12-28T05:37:03.541Z,2.80
2017-12-28T05:38:06.061Z,2.00
2017-12-28T05:39:08.578Z,2.85
2017-12-28T05:40:13.085Z,6.03
2017-12-28T05:41:16.364Z,2.25
2017-12-28T05:42:18.868Z,2.45
2017-12-28T05:43:21.383Z,1.60
2017-12-28T05:44:23.946Z,7.68
2017-12-28T05:45:26.460Z,8.95
2017-12-28T05:46:28.978Z,2.25
2017-12-28T05:47:31.528Z,2.45
2017-12-28T05:48:34.041Z,2.35
2017-12-28T05:49:37.328Z,2.95
2017-12-28T05:50:39.880Z,4.18
2017-12-28T05:51:43.159Z,1.60
2017-12-28T05:52:46.478Z,3.20
2017-12-28T05:53:48.991Z,1.65
2017-12-28T05:54:51.561Z,2.87
2017-12-28T05:55:54.082Z,4.37
2017-12-28T05:56:56.600Z,3.55
2017-12-28T05:57:59.117Z,2.25
2017-12-28T05:59:01.644Z,5.95
2017-12-28T06:00:04.966Z,4.53
2017-12-28T06:01:07.477Z,7.50
2017-12-28T06:02:09.989Z,5.22
2017-12-28T06:03:12.541Z,2.83
2017-12-28T06:04:15.822Z,1.87
2017-12-28T06:05:19.122Z,6.87
2017-12-28T06:06:21.643Z,10.02
2017-12-28T06:07:24.169Z,2.83
2017-12-28T06:08:26.734Z,4.82
2017-12-28T06:09:29.253Z,3.30
2017-12-28T06:10:31.771Z,4.87
2017-12-28T06:11:34.293Z,8.63
2017-12-28T06:12:37.568Z,7.95
2017-12-28T06:13:40.886Z,2.28
2017-12-28T06:14:43.509Z,5.95
2017-12-28T06:15:46.021Z,4.47
2017-12-28T06:16:48.538Z,2.75
2017-12-28T06:17:51.089Z,3.37
2017-12-28T06:18:53.600Z,7.22
2017-12-28T06:19:56.880Z,3.53
2017-12-28T06:21:00.229Z,5.40
2017-12-28T06:22:02.736Z,7.60
2017-12-28T06:23:05.284Z,3.78
2017-12-28T06:24:08.651Z,7.70
2017-12-28T06:25:11.169Z,3.35
2017-12-28T06:26:13.684Z,3.90
2017-12-28T06:27:16.197Z,2.87
2017-12-28T06:28:18.713Z,4.68
2017-12-28T06:29:21.226Z,4.25
2017-12-28T06:30:23.781Z,3.33
2017-12-28T06:31:26.299Z,5.05
2017-12-28T06:32:28.842Z,3.10
2017-12-28T06:33:31.359Z,5.65
2017-12-28T06:34:33.909Z,5.22
2017-12-28T06:35:36.426Z,3.90
2017-12-28T06:36:38.938Z,4.25
2017-12-28T06:37:41.591Z,6.10
2017-12-28T06:38:44.105Z,8.82
2017-12-28T06:39:47.401Z,2.22
2017-12-28T06:40:49.917Z,5.78
2017-12-28T06:41:52.435Z,3.55
2017-12-28T06:42:55.126Z,10.82
2017-12-28T06:43:57.642Z,7.90
2017-12-28T06:45:00.243Z,11.10
2017-12-28T06:46:02.769Z,7.62
2017-12-28T06:47:05.324Z,6.80
2017-12-28T06:48:07.827Z,6.95
2017-12-28T06:49:11.106Z,5.03
2017-12-28T06:50:14.413Z,4.40
2017-12-28T06:51:16.933Z,8.40
2017-12-28T06:52:19.485Z,4.68
2017-12-28T06:53:21.997Z,5.07
2017-12-28T06:54:24.508Z,3.55
2017-12-28T06:55:27.024Z,3.00
2017-12-28T06:56:30.423Z,5.28
2017-12-28T06:57:32.968Z,9.77
2017-12-28T06:58:36.253Z,7.95
2017-12-28T06:59:39.539Z,7.97
2017-12-28T07:00:42.834Z,6.50
2017-12-28T07:01:45.372Z,5.93
2017-12-28T07:02:47.945Z,3.50
2017-12-28T07:03:51.225Z,10.35
2017-12-28T07:04:54.510Z,4.22
2017-12-28T07:05:57.781Z,6.62
2017-12-28T07:07:00.292Z,5.37
2017-12-28T07:08:02.865Z,14.73
2017-12-28T07:09:05.382Z,6.28
2017-12-28T07:10:07.901Z,5.95
2017-12-28T07:11:10.413Z,2.95
2017-12-28T07:12:12.932Z,3.30
2017-12-28T07:13:15.480Z,4.97
2017-12-28T07:14:17.992Z,3.28
2017-12-28T07:15:20.509Z,9.55
2017-12-28T07:16:23.013Z,9.35
2017-12-28T07:17:25.527Z,4.90
2017-12-28T07:18:28.831Z,9.55
2017-12-28T07:19:31.360Z,16.12
2017-12-28T07:20:33.877Z,14.23
2017-12-28T07:21:36.405Z,4.22
2017-12-28T07:22:39.814Z,4.20
2017-12-28T07:23:42.333Z,6.72
2017-12-28T07:24:44.874Z,7.93
2017-12-28T07:25:47.455Z,6.65
2017-12-28T07:26:49.979Z,7.40
2017-12-28T07:27:52.586Z,4.78
2017-12-28T07:28:55.091Z,9.05
2017-12-28T07:29:58.382Z,12.63
2017-12-28T07:31:01.700Z,7.32
2017-12-28T07:32:04.219Z,11.75
2017-12-28T07:33:07.488Z,5.15
2017-12-28T07:34:10.001Z,5.53
2017-12-28T07:35:12.565Z,5.68
2017-12-28T07:36:15.079Z,13.05
2017-12-28T07:37:17.602Z,9.30
2017-12-28T07:38:20.121Z,10.65
2017-12-28T07:39:23.401Z,6.57
2017-12-28T07:40:25.977Z,7.15
2017-12-28T07:41:29.255Z,8.98
2017-12-28T07:42:31.764Z,6.87
2017-12-28T07:43:34.269Z,6.50
2017-12-28T07:44:36.789Z,7.00
2017-12-28T07:45:39.343Z,5.18
2017-12-28T07:46:41.860Z,7.72
2017-12-28T07:47:44.383Z,6.93
2017-12-28T07:48:46.899Z,2.10
2017-12-28T07:49:49.416Z,6.10
2017-12-28T07:50:51.957Z,7.32
2017-12-28T07:51:55.233Z,4.85
2017-12-28T07:52:59.115Z,3.60
2017-12-28T07:54:01.641Z,4.85
2017-12-28T07:55:04.199Z,8.45
2017-12-28T07:56:07.504Z,7.93
2017-12-28T07:57:10.021Z,13.30
2017-12-28T07:58:13.298Z,9.10
2017-12-28T07:59:16.573Z,4.70
2017-12-28T08:00:19.095Z,3.95
2017-12-28T08:01:22.448Z,6.47
2017-12-28T08:02:25.728Z,4.78
2017-12-28T08:03:29.013Z,6.57
2017-12-28T08:04:32.310Z,10.95
2017-12-28T08:05:34.848Z,3.25
2017-12-28T08:06:37.353Z,9.43
2017-12-28T08:07:39.896Z,5.15
2017-12-28T08:08:43.182Z,7.57
2017-12-28T08:09:46.465Z,10.88
2017-12-28T08:10:49.748Z,9.02
2017-12-28T08:11:53.057Z,14.93
2017-12-28T08:12:55.573Z,8.60
2017-12-28T08:13:58.237Z,8.55
2017-12-28T08:15:00.769Z,7.85
2017-12-28T08:16:03.283Z,7.10
2017-12-28T08:17:06.582Z,6.03
2017-12-28T08:18:09.861Z,7.37
2017-12-28T08:19:12.415Z,7.97
2017-12-28T08:20:15.689Z,8.77
2017-12-28T08:21:18.213Z,5.65
2017-12-28T08:22:20.725Z,2.03
2017-12-28T08:23:23.329Z,8.88
2017-12-28T08:24:25.880Z,5.30
2017-12-28T08:25:28.397Z,1.85
2017-12-28T08:26:30.925Z,6.03
2017-12-28T08:27:33.441Z,3.65
2017-12-28T08:28:35.996Z,3.12
2017-12-28T08:29:38.513Z,27.00
2017-12-28T08:30:41.034Z,4.00
2017-12-28T08:31:43.554Z,6.53
2017-12-28T08:32:46.073Z,6.50
2017-12-28T08:33:48.616Z,12.32
2017-12-28T08:34:51.149Z,10.25
2017-12-28T08:35:53.666Z,6.65
2017-12-28T08:36:56.172Z,9.13
2017-12-28T08:37:58.681Z,5.62
2017-12-28T08:39:01.241Z,7.15
2017-12-28T08:40:03.762Z,7.78
2017-12-28T08:41:07.080Z,15.88
2017-12-28T08:42:09.594Z,11.23
2017-12-28T08:43:12.888Z,11.32
2017-12-28T08:44:16.170Z,6.35
2017-12-28T08:45:19.448Z,7.18
2017-12-28T08:46:22.001Z,9.02
2017-12-28T08:47:24.514Z,8.38
2017-12-28T08:48:27.029Z,11.98
2017-12-28T08:49:29.650Z,6.45
2017-12-28T08:50:32.201Z,8.98
2017-12-28T08:51:35.601Z,7.57
2017-12-28T08:52:38.120Z,11.85
2017-12-28T08:53:40.681Z,6.40
2017-12-28T08:54:43.197Z,9.43
2017-12-28T08:55:45.724Z,10.23
2017-12-28T08:56:48.284Z,5.87
2017-12-28T08:57:50.799Z,7.20
2017-12-28T08:58:53.313Z,5.20
2017-12-28T08:59:55.825Z,5.70
2017-12-28T09:00:58.332Z,12.05
2017-12-28T09:02:00.896Z,13.62
2017-12-28T09:03:04.245Z,10.40
2017-12-28T09:04:06.799Z,7.37
2017-12-28T09:05:09.284Z,5.85
2017-12-28T09:06:11.796Z,8.93
2017-12-28T09:07:14.309Z,16.15
2017-12-28T09:08:16.980Z,5.55
2017-12-28T09:09:19.493Z,8.23
2017-12-28T09:10:22.069Z,13.00
2017-12-28T09:11:24.576Z,9.35
2017-12-28T09:12:27.089Z,7.70
2017-12-28T09:13:29.592Z,4.37
2017-12-28T09:14:32.117Z,4.57
2017-12-28T09:15:34.740Z,19.35
2017-12-28T09:16:37.259Z,6.57
2017-12-28T09:17:39.780Z,21.33
2017-12-28T09:18:42.284Z,14.68
2017-12-28T09:19:44.810Z,10.90
2017-12-28T09:20:47.472Z,9.68
2017-12-28T09:21:49.988Z,13.27
2017-12-28T09:22:52.501Z,8.40
2017-12-28T09:23:55.054Z,6.93
2017-12-28T09:24:57.622Z,11.27
2017-12-28T09:26:00.112Z,7.15
2017-12-28T09:27:02.629Z,11.07
2017-12-28T09:28:05.158Z,7.85
2017-12-28T09:29:07.704Z,15.52
2017-12-28T09:30:10.264Z,12.55
2017-12-28T09:31:12.794Z,12.77
2017-12-28T09:32:15.345Z,9.77
2017-12-28T09:33:17.866Z,10.70
2017-12-28T09:34:20.417Z,13.02
2017-12-28T09:35:22.935Z,11.95
2017-12-28T09:36:25.448Z,7.72
2017-12-28T09:37:27.993Z,8.13
2017-12-28T09:38:31.269Z,9.70
2017-12-28T09:39:33.796Z,13.82
2017-12-28T09:40:36.311Z,12.07
2017-12-28T09:41:39.629Z,17.05
2017-12-28T09:42:42.145Z,11.20
2017-12-28T09:43:44.658Z,11.88
2017-12-28T09:44:47.178Z,8.63
2017-12-28T09:45:49.690Z,11.80
2017-12-28T09:46:52.238Z,13.32
2017-12-28T09:47:55.521Z,12.93
2017-12-28T09:48:58.800Z,18.90
2017-12-28T09:50:02.122Z,17.40
2017-12-28T09:51:04.644Z,16.92
2017-12-28T09:52:07.918Z,9.77
2017-12-28T09:53:10.433Z,27.25
2017-12-28T09:54:12.955Z,11.60
2017-12-28T09:55:16.292Z,14.30
2017-12-28T09:56:18.813Z,14.43
2017-12-28T09:57:22.094Z,14.63
2017-12-28T09:58:25.375Z,9.57
2017-12-28T09:59:28.666Z,13.50
2017-12-28T10:00:31.979Z,12.90
2017-12-28T10:01:34.500Z,13.20
2017-12-28T10:02:37.009Z,9.38
2017-12-28T10:03:39.523Z,8.88
2017-12-28T10:04:42.049Z,14.15
2017-12-28T10:05:44.609Z,20.48
2017-12-28T10:06:47.156Z,19.02
2017-12-28T10:07:49.681Z,22.30
2017-12-28T10:08:52.201Z,13.45
2017-12-28T10:09:54.726Z,14.48
2017-12-28T10:10:57.272Z,9.68
2017-12-28T10:11:59.787Z,19.02
2017-12-28T10:13:02.416Z,13.40
2017-12-28T10:14:04.938Z,9.05
2017-12-28T10:15:07.448Z,20.73
2017-12-28T10:16:10.009Z,12.35
2017-12-28T10:17:12.528Z,14.15
2017-12-28T10:18:15.040Z,16.52
2017-12-28T10:19:17.555Z,10.65
2017-12-28T10:20:20.112Z,10.00
2017-12-28T10:21:22.621Z,18.35
2017-12-28T10:22:25.132Z,17.30
2017-12-28T10:23:28.445Z,11.68
2017-12-28T10:24:30.969Z,13.02
2017-12-28T10:25:33.534Z,19.62
2017-12-28T10:26:36.067Z,8.13
2017-12-28T10:27:38.584Z,12.80
2017-12-28T10:28:41.862Z,13.48
2017-12-28T10:29:45.139Z,14.30
2017-12-28T10:30:48.465Z,18.60
2017-12-28T10:31:50.981Z,10.82
2017-12-28T10:32:53.501Z,12.18
2017-12-28T10:33:56.052Z,8.88
2017-12-28T10:34:58.566Z,9.45
2017-12-28T10:36:01.128Z,17.55
2017-12-28T10:37:03.686Z,10.70
2017-12-28T10:38:06.430Z,10.63
2017-12-28T10:39:08.958Z,14.18
2017-12-28T10:40:12.236Z,15.05
2017-12-28T10:41:14.795Z,13.00
2017-12-28T10:42:17.316Z,17.02
2017-12-28T10:43:19.838Z,8.35
2017-12-28T10:44:23.121Z,12.05
2017-12-28T10:45:26.401Z,19.08
2017-12-28T10:46:28.981Z,13.07
2017-12-28T10:47:32.273Z,10.77
2017-12-28T10:48:35.549Z,9.63
2017-12-28T10:49:38.837Z,14.65
2017-12-28T10:50:42.112Z,11.57
2017-12-28T10:51:45.434Z,17.67
2017-12-28T10:52:47.988Z,9.73
2017-12-28T10:53:50.513Z,11.10
2017-12-28T10:54:53.030Z,12.98
2017-12-28T10:55:55.548Z,13.07
2017-12-28T10:56:58.060Z,12.43
2017-12-28T10:58:00.617Z,14.10
2017-12-28T10:59:03.137Z,12.85
2017-12-28T11:00:05.693Z,10.55
2017-12-28T11:01:08.219Z,21.30
2017-12-28T11:02:10.736Z,12.75
2017-12-28T11:03:13.261Z,14.75
2017-12-28T11:04:15.830Z,11.82
2017-12-28T11:05:18.340Z,8.65
2017-12-28T11:06:20.906Z,11.20
2017-12-28T11:07:24.205Z,15.95
2017-12-28T11:08:27.481Z,9.95
2017-12-28T11:09:30.804Z,11.68
2017-12-28T11:10:33.324Z,11.90
2017-12-28T11:11:35.872Z,14.20
2017-12-28T11:12:38.379Z,13.57
2017-12-28T11:13:40.929Z,13.40
2017-12-28T11:14:44.211Z,10.85
2017-12-28T11:15:46.725Z,17.67
2017-12-28T11:16:49.293Z,7.22
2017-12-28T11:17:51.817Z,9.30
2017-12-28T11:18:55.101Z,18.25
2017-12-28T11:19:58.376Z,11.60
2017-12-28T11:21:00.989Z,10.50
2017-12-28T11:22:03.738Z,16.48
2017-12-28T11:23:06.293Z,9.60
2017-12-28T11:24:09.577Z,16.85
2017-12-28T11:25:12.861Z,6.18
2017-12-28T11:26:16.145Z,16.90
2017-12-28T11:27:19.433Z,26.98
2017-12-28T11:28:22.901Z,12.30
2017-12-28T11:29:25.425Z,13.07
2017-12-28T11:30:27.945Z,10.18
2017-12-28T11:31:31.269Z,9.60
2017-12-28T11:32:33.787Z,8.23
2017-12-28T11:33:37.065Z,14.70
2017-12-28T11:34:39.671Z,12.40
2017-12-28T11:35:42.185Z,8.45
2017-12-28T11:36:44.744Z,8.20
2017-12-28T11:37:47.248Z,7.25
2017-12-28T11:38:50.529Z,12.40
2017-12-28T11:39:53.812Z,16.60
2017-12-28T11:40:57.093Z,7.45
2017-12-28T11:42:00.441Z,11.80
2017-12-28T11:43:02.965Z,17.77
2017-12-28T11:44:05.653Z,12.85
2017-12-28T11:45:08.170Z,10.73
2017-12-28T11:46:11.449Z,8.60
2017-12-28T11:47:14.014Z,9.95
2017-12-28T11:48:16.525Z,12.55
2017-12-28T11:49:20.863Z,13.77
2017-12-28T11:50:23.385Z,9.88
2017-12-28T11:51:25.907Z,11.75
2017-12-28T11:52:39.101Z,6.12
2017-12-28T11:55:19.369Z,12.07
2017-12-28T11:56:24.508Z,7.55
2017-12-28T11:57:27.060Z,21.85
2017-12-28T11:58:30.492Z,11.40
2017-12-28T11:59:33.784Z,25.40
2017-12-28T12:00:42.846Z,8.48
2017-12-28T12:01:51.042Z,19.62
2017-12-28T12:03:09.414Z,10.82
2017-12-28T12:04:11.969Z,7.95
2017-12-28T12:05:20.065Z,17.65
2017-12-28T12:06:28.204Z,17.15
2017-12-28T12:07:45.596Z,8.43
2017-12-28T12:08:54.723Z,13.00
2017-12-28T12:09:58.009Z,7.75
2017-12-28T12:11:01.284Z,6.95
2017-12-28T12:12:04.608Z,8.40
2017-12-28T12:13:07.129Z,6.95
2017-12-28T12:14:09.645Z,17.65
2017-12-28T12:15:12.160Z,15.52
2017-12-28T12:16:14.684Z,10.57
2017-12-28T12:17:17.226Z,10.23
2017-12-28T12:18:19.947Z,6.62
2017-12-28T12:19:22.463Z,6.32
2017-12-28T12:20:24.985Z,8.52
2017-12-28T12:21:27.494Z,7.60
2017-12-28T12:22:30.017Z,16.92
2017-12-28T12:23:32.575Z,10.75
2017-12-28T12:25:44.059Z,16.23
2017-12-28T12:26:46.569Z,10.10
2017-12-28T12:27:49.092Z,11.27
2017-12-28T12:28:51.645Z,6.60
2017-12-28T12:29:54.165Z,19.62
2017-12-28T12:30:56.676Z,7.80
2017-12-28T12:31:59.184Z,8.70
2017-12-28T12:33:01.705Z,7.15
2017-12-28T12:34:04.251Z,11.82
2017-12-28T12:35:06.769Z,8.13
2017-12-28T12:36:10.056Z,21.85
2017-12-28T12:37:13.332Z,12.20
2017-12-28T12:38:15.856Z,21.92
2017-12-28T12:39:18.419Z,16.25
2017-12-28T12:40:21.099Z,11.48
2017-12-28T12:41:23.656Z,15.02
2017-12-28T12:42:26.184Z,11.50
2017-12-28T12:43:28.725Z,10.63
2017-12-28T12:44:31.237Z,4.55
2017-12-28T12:45:33.792Z,6.47
2017-12-28T12:46:36.309Z,12.37
2017-12-28T12:47:38.820Z,11.20
2017-12-28T12:48:41.332Z,7.43
2017-12-28T12:49:43.861Z,17.80
2017-12-28T12:50:46.405Z,13.88
2017-12-28T12:51:49.688Z,10.93
2017-12-28T12:52:52.977Z,15.50
2017-12-28T12:53:55.541Z,11.05
2017-12-28T12:54:58.825Z,6.70
2017-12-28T12:56:02.131Z,12.98
2017-12-28T12:57:04.651Z,9.82
2017-12-28T12:58:07.176Z,11.80
2017-12-28T12:59:09.727Z,9.15
2017-12-28T13:00:12.244Z,11.52
2017-12-28T13:01:14.806Z,13.02
2017-12-28T13:02:17.334Z,16.00
2017-12-28T13:03:19.862Z,13.70
2017-12-28T13:04:23.196Z,11.27
2017-12-28T13:05:25.714Z,14.40
2017-12-28T13:06:29.121Z,8.43
2017-12-28T13:07:32.384Z,10.25
2017-12-28T13:08:35.665Z,5.43
2017-12-28T13:09:38.966Z,13.68
2017-12-28T13:10:41.493Z,12.48
2017-12-28T13:11:44.142Z,12.98
2017-12-28T13:12:46.783Z,10.50
2017-12-28T13:13:49.310Z,7.78
2017-12-28T13:14:51.824Z,8.43
2017-12-28T13:15:54.333Z,11.55
2017-12-28T13:16:56.947Z,20.35
2017-12-28T13:17:59.456Z,8.27
2017-12-28T13:19:02.026Z,6.45
2017-12-28T13:20:04.537Z,8.52
2017-12-28T13:21:07.055Z,14.30
2017-12-28T13:22:09.573Z,23.10
2017-12-28T13:23:12.091Z,13.93
2017-12-28T13:24:14.651Z,13.85
2017-12-28T13:25:17.160Z,17.50
2017-12-28T13:26:19.673Z,10.82
2017-12-28T13:27:22.231Z,11.68
2017-12-28T13:28:24.873Z,10.77
2017-12-28T13:29:27.394Z,10.10
2017-12-28T13:30:30.678Z,20.52
2017-12-28T13:31:33.189Z,12.07
2017-12-28T13:32:35.735Z,17.80
2017-12-28T13:33:39.020Z,7.60
2017-12-28T13:34:42.306Z,13.40
2017-12-28T13:35:45.592Z,10.85
2017-12-28T13:36:48.132Z,6.90
2017-12-28T13:37:50.649Z,15.20
2017-12-28T13:38:53.176Z,10.73
2017-12-28T13:39:57.308Z,12.82
2017-12-28T13:40:59.825Z,13.93
2017-12-28T13:42:02.374Z,8.70
2017-12-28T13:43:04.887Z,15.88
2017-12-28T13:44:08.168Z,11.48
2017-12-28T13:45:10.710Z,9.02
2017-12-28T13:46:13.217Z,11.60